Time;durP1;ratioP1;P1;durP2;ratioP2;P2;SDS_P1;SDS_P2;PMS_P1;PMS_P2;Temp;Humidity;BMP_temperature;BMP_pressure;BME280_temperature;BME280_humidity;BME280_pressure;Samples;Min_cycle;Max_cycle;Signal;HPM_P1;HPM_P2
2023/01/16 00:01:55;;;;;;;2.33;0.90;;;;;;;2.86;100.00;97652.66;5031629;28;20033;-75
2023/01/16 00:04:21;;;;;;;2.20;0.60;;;;;;;2.95;100.00;97638.19;5026062;28;20040;-75
2023/01/16 00:06:46;;;;;;;5.35;0.82;;;;;;;2.90;100.00;97629.88;5035639;28;20021;-76
2023/01/16 00:09:11;;;;;;;3.05;0.60;;;;;;;2.96;100.00;97633.66;5016930;28;20029;-76
2023/01/16 00:11:37;;;;;;;4.82;0.75;;;;;;;2.93;100.00;97624.19;5036324;28;20018;-75
2023/01/16 00:14:02;;;;;;;6.03;0.80;;;;;;;2.95;100.00;97610.66;5010806;28;20025;-76
2023/01/16 00:16:28;;;;;;;1.98;0.65;;;;;;;2.94;100.00;97603.66;5013424;28;20036;-76
2023/01/16 00:18:54;;;;;;;2.83;0.60;;;;;;;2.96;100.00;97596.25;5034802;28;20037;-75
2023/01/16 00:21:20;;;;;;;4.15;0.68;;;;;;;3.08;100.00;97611.66;5018480;28;20052;-76
2023/01/16 00:23:46;;;;;;;2.33;0.40;;;;;;;2.89;100.00;97582.84;5035642;28;20064;-75
2023/01/16 00:26:12;;;;;;;5.40;0.80;;;;;;;2.82;100.00;97555.19;5018846;28;20059;-75
2023/01/16 00:28:38;;;;;;;3.05;0.52;;;;;;;2.97;100.00;97585.41;5007294;28;20036;-76
2023/01/16 00:31:05;;;;;;;3.38;0.70;;;;;;;3.02;100.00;97596.38;5050871;28;20021;-75
2023/01/16 00:33:31;;;;;;;2.80;0.50;;;;;;;2.90;100.00;97576.47;5014454;28;20026;-76
2023/01/16 00:35:57;;;;;;;3.22;0.60;;;;;;;2.84;100.00;97567.34;5016791;28;20075;-76
2023/01/16 00:38:22;;;;;;;2.85;0.80;;;;;;;2.99;100.00;97585.22;5046774;28;20029;-76
2023/01/16 00:40:47;;;;;;;4.50;1.08;;;;;;;2.85;100.00;97558.31;5029879;28;20029;-75
2023/01/16 00:43:13;;;;;;;8.00;0.95;;;;;;;3.01;100.00;97578.69;5008337;28;20132;-76
2023/01/16 00:45:39;;;;;;;5.68;1.50;;;;;;;2.72;100.00;97531.44;5017050;28;20033;-76
2023/01/16 00:48:05;;;;;;;5.25;1.27;;;;;;;2.93;100.00;97545.88;5036211;28;20116;-75
2023/01/16 00:50:30;;;;;;;4.93;0.85;;;;;;;2.96;100.00;97540.16;5034656;28;20108;-76
2023/01/16 00:52:56;;;;;;;3.13;0.70;;;;;;;2.94;100.00;97536.88;5028231;28;20021;-75
2023/01/16 00:55:21;;;;;;;4.90;1.25;;;;;;;3.06;100.00;97549.53;5010446;28;20043;-76
2023/01/16 00:57:46;;;;;;;3.97;0.95;;;;;;;2.88;100.00;97516.22;5012675;28;20026;-75
2023/01/16 01:00:12;;;;;;;2.25;0.28;;;;;;;2.90;100.00;97515.03;5032518;28;20437;-76
2023/01/16 01:02:37;;;;;;;1.55;0.60;;;;;;;2.87;100.00;97512.72;5016787;28;20029;-75
2023/01/16 01:05:02;;;;;;;4.70;0.65;;;;;;;2.95;100.00;97523.31;5011228;28;20033;-75
2023/01/16 01:07:28;;;;;;;1.83;0.40;;;;;;;3.01;100.00;97535.09;5019160;28;20113;-75
2023/01/16 01:09:53;;;;;;;2.25;0.40;;;;;;;3.02;100.00;97510.03;5032714;28;20024;-75
2023/01/16 01:12:18;;;;;;;1.00;0.40;;;;;;;3.04;100.00;97502.69;5027397;28;20125;-75
2023/01/16 01:14:44;;;;;;;4.03;0.95;;;;;;;3.03;100.00;97479.63;5018043;28;20427;-75
2023/01/16 01:17:09;;;;;;;1.77;0.40;;;;;;;3.08;100.00;97494.06;5035068;28;20119;-75
2023/01/16 01:19:35;;;;;;;1.30;0.40;;;;;;;3.06;100.00;97476.56;5043314;28;20036;-75
2023/01/16 01:22:00;;;;;;;4.28;0.47;;;;;;;3.14;100.00;97481.81;5016419;28;20036;-76
2023/01/16 01:24:25;;;;;;;1.52;0.47;;;;;;;3.30;100.00;97483.41;5029043;28;20484;-76
2023/01/16 01:26:50;;;;;;;2.22;0.43;;;;;;;3.11;100.00;97442.09;5022391;28;20026;-74
2023/01/16 01:29:16;;;;;;;2.42;0.30;;;;;;;3.26;100.00;97466.13;5045888;28;20111;-76
2023/01/16 01:31:41;;;;;;;0.52;0.20;;;;;;;3.36;100.00;97479.19;5030544;28;20025;-75
2023/01/16 01:34:06;;;;;;;1.13;0.32;;;;;;;3.35;100.00;97458.78;5020524;28;20025;-74
2023/01/16 01:36:31;;;;;;;1.63;0.30;;;;;;;3.14;100.00;97428.34;5012871;28;20037;-76
2023/01/16 01:38:57;;;;;;;3.75;0.63;;;;;;;3.08;100.00;97434.47;5014009;28;20026;-74
2023/01/16 01:41:23;;;;;;;3.00;1.40;;;;;;;3.28;100.00;97469.44;5018196;28;20549;-75
2023/01/16 01:43:54;;;;;;;5.25;0.65;;;;;;;3.25;100.00;97473.31;5011251;28;20507;-76
2023/01/16 01:46:42;;;;;;;2.42;0.50;;;;;;;3.19;100.00;97454.53;5019847;28;20112;-75
2023/01/16 01:49:12;;;;;;;1.90;0.43;;;;;;;2.95;100.00;97431.66;5008029;28;20021;-75
2023/01/16 01:51:42;;;;;;;4.22;0.30;;;;;;;3.04;100.00;97446.56;5021785;28;20306;-76
2023/01/16 01:54:15;;;;;;;2.78;0.95;;;;;;;3.03;100.00;97437.69;5030931;28;20108;-74
2023/01/16 01:56:53;;;;;;;1.65;0.40;;;;;;;3.11;100.00;97423.41;5007191;28;20063;-75
2023/01/16 01:59:29;;;;;;;4.47;0.52;;;;;;;3.08;100.00;97407.75;5036525;28;20037;-75
2023/01/16 02:01:55;;;;;;;3.55;0.52;;;;;;;3.14;100.00;97412.31;5031917;28;20025;-76
2023/01/16 02:04:27;;;;;;;5.10;0.60;;;;;;;3.14;100.00;97408.81;5021144;28;20064;-75
2023/01/16 02:07:01;;;;;;;4.53;1.08;;;;;;;2.80;100.00;97378.28;5022024;28;20037;-76
2023/01/16 02:09:26;;;;;;;5.50;0.90;;;;;;;2.62;100.00;97363.53;5008102;28;20036;-75
2023/01/16 02:12:00;;;;;;;5.80;1.50;;;;;;;2.73;100.00;97388.06;5030988;28;20029;-75
2023/01/16 02:14:27;;;;;;;5.55;0.60;;;;;;;2.71;100.00;97390.09;5008409;28;20108;-75
2023/01/16 02:20:11;;;;;;;1.95;0.52;;;;;;;2.44;100.00;97368.44;5035890;28;20137;-74
2023/01/16 02:23:06;;;;;;;3.80;0.90;;;;;;;2.24;100.00;97356.69;5027098;28;20029;-75
2023/01/16 02:26:08;;;;;;;2.65;0.60;;;;;;;2.29;100.00;97355.13;5013305;28;20158;-76
2023/01/16 02:28:46;;;;;;;1.25;0.40;;;;;;;2.28;100.00;97337.47;5011529;28;20098;-75
2023/01/16 02:31:43;;;;;;;4.43;0.50;;;;;;;2.10;100.00;97319.16;5013442;28;20522;-76
2023/01/16 02:34:41;;;;;;;3.72;0.60;;;;;;;1.98;100.00;97285.97;5011744;28;20029;-76
2023/01/16 02:37:21;;;;;;;1.15;0.22;;;;;;;2.04;100.00;97295.88;5032537;28;20067;-75
2023/01/16 02:40:13;;;;;;;7.15;0.73;;;;;;;2.24;100.00;97309.47;5025557;28;20060;-74
2023/01/16 02:43:00;;;;;;;3.20;0.40;;;;;;;2.07;100.00;97281.34;5000681;28;20116;-76
2023/01/16 02:45:43;;;;;;;1.55;0.40;;;;;;;2.15;100.00;97267.94;5027651;28;20040;-75
2023/01/16 02:48:15;;;;;;;4.35;0.93;;;;;;;2.29;100.00;97272.38;5011282;28;20020;-75
2023/01/16 02:50:52;;;;;;;4.90;0.75;;;;;;;2.32;100.00;97282.69;5049760;28;20060;-75
2023/01/16 02:53:26;;;;;;;1.75;0.50;;;;;;;2.31;100.00;97259.69;5038801;28;20562;-75
2023/01/16 02:56:08;;;;;;;3.00;0.60;;;;;;;2.11;100.00;97224.78;5015044;28;20379;-75
2023/01/16 02:58:38;;;;;;;1.33;0.30;;;;;;;2.40;100.00;97250.53;5029913;28;20472;-73
2023/01/16 03:01:03;;;;;;;0.52;0.28;;;;;;;2.52;100.00;97231.34;5034706;28;20025;-76
2023/01/16 03:03:36;;;;;;;2.35;0.20;;;;;;;2.55;100.00;97223.78;5011783;28;20098;-76
2023/01/16 03:06:14;;;;;;;1.05;0.40;;;;;;;2.55;100.00;97214.97;5022084;28;20032;-76
2023/01/16 03:08:49;;;;;;;0.52;0.30;;;;;;;2.61;100.00;97227.53;5021361;28;20111;-75
2023/01/16 03:11:22;;;;;;;2.92;0.30;;;;;;;2.67;100.00;97220.59;5029761;28;20029;-75
2023/01/16 03:14:06;;;;;;;6.72;0.52;;;;;;;2.67;100.00;97224.06;5016761;28;20522;-75
2023/01/16 03:16:50;;;;;;;1.65;0.50;;;;;;;2.60;100.00;97196.53;5018978;28;20057;-75
2023/01/16 03:19:48;;;;;;;0.98;0.35;;;;;;;2.66;100.00;97189.59;5025387;28;20030;-74
2023/01/16 03:23:01;;;;;;;8.73;1.30;;;;;;;2.73;100.00;97193.13;5025773;28;20060;-75
2023/01/16 03:25:45;;;;;;;3.45;0.45;;;;;;;2.62;100.00;97181.97;4971923;28;20089;-75
2023/01/16 03:28:30;;;;;;;4.63;0.70;;;;;;;2.70;100.00;97177.47;4992262;28;20067;-75
2023/01/16 03:31:25;;;;;;;3.08;0.82;;;;;;;2.74;100.00;97165.41;5013136;28;20041;-76
2023/01/16 03:34:32;;;;;;;3.17;0.30;;;;;;;2.88;100.00;97161.78;5033774;28;20033;-75
2023/01/16 03:37:13;;;;;;;2.65;0.38;;;;;;;2.96;100.00;97158.16;5033544;28;20139;-75
2023/01/16 03:39:43;;;;;;;4.60;0.55;;;;;;;2.94;100.00;97155.69;5045170;28;20383;-75
2023/01/16 03:42:15;;;;;;;2.10;0.40;;;;;;;2.93;100.00;97150.53;5035681;28;20398;-75
2023/01/16 03:44:47;;;;;;;1.17;0.30;;;;;;;2.89;100.00;97130.59;5021246;28;20029;-75
2023/01/16 03:47:18;;;;;;;2.05;0.57;;;;;;;2.85;100.00;97120.28;5015540;28;20044;-75
2023/01/16 03:49:49;;;;;;;3.45;0.47;;;;;;;2.85;100.00;97122.94;5024025;28;20048;-75
2023/01/16 03:52:18;;;;;;;10.32;0.98;;;;;;;2.84;100.00;97121.31;5016605;28;20045;-75
2023/01/16 03:55:06;;;;;;;2.65;0.40;;;;;;;2.92;100.00;97108.81;5018813;28;20029;-75
2023/01/16 03:57:36;;;;;;;2.10;0.40;;;;;;;2.89;100.00;97107.38;5035173;28;20041;-76
2023/01/16 04:00:02;;;;;;;1.65;0.32;;;;;;;2.71;100.00;97075.81;5025977;28;20128;-76
2023/01/16 04:02:57;;;;;;;1.75;0.52;;;;;;;2.88;100.00;97092.34;5022771;28;20013;-72
2023/01/16 04:05:28;;;;;;;1.38;0.50;;;;;;;2.82;100.00;97091.28;5025665;28;20057;-72
2023/01/16 04:08:00;;;;;;;1.63;0.68;;;;;;;2.73;100.00;97075.66;5035126;28;20366;-75
2023/01/16 04:10:30;;;;;;;6.70;0.50;;;;;;;2.69;100.00;97063.69;5032104;28;20044;-73
2023/01/16 04:13:01;;;;;;;1.48;0.40;;;;;;;2.69;100.00;97069.84;5020897;28;20399;-74
2023/01/16 04:15:30;;;;;;;2.85;0.50;;;;;;;2.52;100.00;97047.19;5032543;28;20033;-76
2023/01/16 04:17:55;;;;;;;1.55;0.40;;;;;;;2.46;100.00;97035.41;5034076;28;20101;-74
2023/01/16 04:20:23;;;;;;;2.97;0.40;;;;;;;2.59;100.00;97050.69;5030218;28;20037;-77
2023/01/16 04:22:49;;;;;;;2.97;0.43;;;;;;;2.37;100.00;97020.59;5011673;28;20033;-75
2023/01/16 04:25:16;;;;;;;3.60;0.90;;;;;;;2.41;100.00;97021.81;5004791;28;20036;-78
2023/01/16 04:27:41;;;;;;;0.50;0.22;;;;;;;2.28;100.00;97003.91;5016648;28;20121;-76
2023/01/16 04:30:08;;;;;;;10.15;0.80;;;;;;;2.38;100.00;97004.38;5032998;28;20079;-78
2023/01/16 04:33:20;;;;;;;1.75;0.55;;;;;;;2.46;100.00;97022.06;5033199;28;20035;-79
2023/01/16 04:35:54;;;;;;;1.00;0.30;;;;;;;2.27;100.00;96985.41;5014430;28;20046;-78
2023/01/16 04:49:26;;;;;;;1.05;0.50;;;;;;;1.94;100.00;96978.84;4987179;28;20053;-79
2023/01/16 04:55:20;;;;;;;0.88;0.40;;;;;;;1.71;100.00;96927.59;5004784;28;20048;-74
2023/01/16 04:57:46;;;;;;;3.95;0.52;;;;;;;1.73;100.00;96941.56;5028557;28;20029;-72
2023/01/16 05:00:12;;;;;;;1.10;0.57;;;;;;;1.59;100.00;96923.78;5026118;28;20079;-77
2023/01/16 05:02:38;;;;;;;3.05;0.40;;;;;;;1.69;100.00;96937.63;5022040;28;20585;-75
2023/01/16 05:05:04;;;;;;;0.85;0.50;;;;;;;1.43;100.00;96916.91;5021714;28;20539;-78
2023/01/16 05:10:50;;;;;;;2.80;0.50;;;;;;;1.28;100.00;96911.63;5008192;28;20054;-78
2023/01/16 05:13:20;;;;;;;2.70;0.47;;;;;;;1.20;100.00;96893.13;5038159;28;20068;-78
2023/01/16 05:16:03;;;;;;;4.50;0.75;;;;;;;0.41;100.00;96737.00;5058307;28;20001;-81
2023/01/16 05:19:06;;;;;;;6.88;0.85;;;;;;;0.60;100.00;96757.66;5025184;28;20041;-80
2023/01/16 05:21:51;;;;;;;2.88;1.00;;;;;;;0.48;100.00;96716.59;5022244;28;20033;-79
2023/01/16 05:24:16;;;;;;;2.88;0.65;;;;;;;1.52;100.00;96873.13;5021474;22;20142;-56
2023/01/16 05:26:42;;;;;;;2.83;0.60;;;;;;;1.49;100.00;96860.16;5003514;28;20401;-55
2023/01/16 05:29:07;;;;;;;1.15;0.40;;;;;;;1.50;100.00;96851.16;5009195;28;20034;-55
2023/01/16 05:31:33;;;;;;;0.77;0.30;;;;;;;1.67;100.00;96852.50;4997722;28;20026;-55
2023/01/16 05:33:58;;;;;;;3.40;0.20;;;;;;;1.61;100.00;96839.13;4990807;28;20037;-59
2023/01/16 05:36:23;;;;;;;2.38;0.30;;;;;;;1.66;100.00;96834.06;4986248;28;20021;-56
2023/01/16 05:38:50;;;;;;;6.05;0.55;;;;;;;1.70;100.00;96833.47;4989599;28;20509;-55
2023/01/16 05:41:15;;;;;;;4.47;0.30;;;;;;;1.78;100.00;96824.47;4991440;28;20034;-55
2023/01/16 05:43:41;;;;;;;1.92;0.60;;;;;;;1.89;100.00;96815.94;4993766;28;20034;-56
2023/01/16 05:46:06;;;;;;;2.63;0.60;;;;;;;1.91;100.00;96811.22;4994638;28;20334;-56
2023/01/16 05:48:32;;;;;;;2.72;0.57;;;;;;;2.02;100.00;96801.84;4993523;28;20022;-56
2023/01/16 05:50:59;;;;;;;4.95;0.47;;;;;;;2.06;100.00;96791.59;4985879;28;20024;-56
2023/01/16 05:53:30;;;;;;;2.45;1.00;;;;;;;2.05;100.00;96768.63;4996666;28;20029;-56
2023/01/16 05:55:56;;;;;;;1.35;0.50;;;;;;;2.15;100.00;96766.41;4986794;28;20025;-55
2023/01/16 05:58:22;;;;;;;3.08;0.55;;;;;;;2.22;100.00;96745.88;4996491;28;20033;-56
2023/01/16 06:00:48;;;;;;;3.13;0.60;;;;;;;2.37;100.00;96735.03;4996406;28;20029;-55
2023/01/16 06:03:18;;;;;;;3.92;1.20;;;;;;;2.32;100.00;96714.28;4995690;28;20028;-56
2023/01/16 06:05:43;;;;;;;4.45;1.08;;;;;;;2.52;100.00;96718.84;5000625;28;20040;-56
2023/01/16 06:08:11;;;;;;;5.32;1.60;;;;;;;2.57;100.00;96711.06;4981543;28;20055;-56
2023/01/16 06:10:36;;;;;;;12.55;3.38;;;;;;;2.66;100.00;96699.13;4991841;28;20026;-55
2023/01/16 06:13:03;;;;;;;1.83;0.68;;;;;;;2.72;100.00;96700.97;4985887;28;20026;-56
2023/01/16 06:15:29;;;;;;;0.32;0.30;;;;;;;2.79;100.00;96687.66;4992578;28;20496;-55
2023/01/16 06:17:55;;;;;;;1.48;0.60;;;;;;;2.76;100.00;96691.53;5010355;28;20137;-55
2023/01/16 06:20:22;;;;;;;5.30;0.50;;;;;;;2.79;100.00;96684.97;4984476;28;20159;-55
2023/01/16 06:22:47;;;;;;;1.88;0.35;;;;;;;2.80;100.00;96660.75;4990202;28;20034;-55
2023/01/16 06:25:13;;;;;;;3.42;1.00;;;;;;;2.80;100.00;96667.91;4979705;28;20032;-56
2023/01/16 06:27:38;;;;;;;3.38;0.60;;;;;;;2.95;100.00;96649.81;5002002;28;20060;-56
2023/01/16 06:30:05;;;;;;;4.30;0.75;;;;;;;3.05;100.00;96644.88;4990180;28;20029;-56
2023/01/16 06:32:31;;;;;;;2.00;0.50;;;;;;;3.04;100.00;96645.09;4991766;28;20470;-55
2023/01/16 06:34:57;;;;;;;2.38;0.43;;;;;;;3.10;100.00;96636.25;4990720;28;20036;-55
2023/01/16 06:37:23;;;;;;;5.05;0.40;;;;;;;2.96;100.00;96607.91;4993371;28;20153;-56
2023/01/16 06:39:48;;;;;;;1.63;0.50;;;;;;;3.06;100.00;96610.97;4993732;28;20116;-56
2023/01/16 06:42:14;;;;;;;2.38;0.35;;;;;;;3.13;100.00;96609.09;4985683;28;20057;-56
2023/01/16 06:44:39;;;;;;;4.03;0.70;;;;;;;3.12;100.00;96596.78;4989694;28;20038;-56
2023/01/16 06:47:06;;;;;;;0.65;0.22;;;;;;;3.28;100.00;96588.28;4986013;28;20077;-56
2023/01/16 06:49:32;;;;;;;2.30;0.47;;;;;;;3.32;100.00;96579.84;4983753;28;20022;-56
2023/01/16 06:51:59;;;;;;;3.13;0.47;;;;;;;3.26;100.00;96585.00;4985214;28;20563;-56
2023/01/16 06:54:25;;;;;;;1.58;0.40;;;;;;;3.10;100.00;96582.81;4993496;28;20032;-56
2023/01/16 06:56:50;;;;;;;1.55;0.43;;;;;;;2.99;100.00;96586.94;4988869;28;20029;-56
2023/01/16 06:59:16;;;;;;;0.98;0.40;;;;;;;2.89;100.00;96585.75;4990473;28;20037;-56
2023/01/16 07:01:41;;;;;;;0.55;0.22;;;;;;;2.82;100.00;96583.09;4985470;28;20124;-56
2023/01/16 07:04:07;;;;;;;1.25;0.50;;;;;;;2.79;100.00;96573.63;5005026;28;20027;-56
2023/01/16 07:06:33;;;;;;;1.35;0.40;;;;;;;2.83;100.00;96576.72;4975602;28;20441;-56
2023/01/16 07:08:58;;;;;;;2.92;0.57;;;;;;;2.84;100.00;96565.81;5007800;28;20439;-56
2023/01/16 07:11:23;;;;;;;1.60;0.47;;;;;;;2.83;100.00;96563.38;4983066;28;20029;-55
2023/01/16 07:22:33;;;;;;;1.63;0.55;;;;;;;2.83;100.00;96569.53;4991664;28;20025;-56
2023/01/16 07:24:46;;;;;;;2.55;0.52;;;;;;;2.63;100.00;96550.88;5007187;28;20049;-56
2023/01/16 07:27:11;;;;;;;4.57;0.63;;;;;;;2.64;100.00;96536.50;4991491;28;20034;-58
2023/01/16 07:29:37;;;;;;;2.25;0.50;;;;;;;2.77;100.00;96537.50;4978567;28;20037;-56
2023/01/16 07:32:03;;;;;;;2.30;0.50;;;;;;;2.88;100.00;96539.50;4989969;28;20026;-56
2023/01/16 07:34:29;;;;;;;6.25;0.80;;;;;;;2.89;100.00;96535.00;4991385;28;20087;-56
2023/01/16 07:36:54;;;;;;;1.02;0.55;;;;;;;2.84;100.00;96533.78;4986598;28;20121;-56
2023/01/16 07:39:20;;;;;;;1.10;0.47;;;;;;;2.85;100.00;96526.56;4977936;28;20018;-56
2023/01/16 07:41:46;;;;;;;3.67;0.57;;;;;;;2.90;100.00;96518.75;4985158;28;20049;-56
2023/01/16 07:44:12;;;;;;;2.58;0.52;;;;;;;2.93;100.00;96513.00;4986421;28;20034;-56
2023/01/16 07:46:38;;;;;;;3.70;0.70;;;;;;;3.00;100.00;96499.63;4984180;28;20037;-55
2023/01/16 07:49:04;;;;;;;4.53;0.75;;;;;;;3.05;100.00;96483.78;4988901;28;20115;-56
2023/01/16 07:51:29;;;;;;;2.40;0.60;;;;;;;3.13;100.00;96491.53;4988639;28;20465;-56
2023/01/16 07:53:55;;;;;;;1.85;0.60;;;;;;;3.14;100.00;96482.47;4982272;28;20459;-55
2023/01/16 07:56:20;;;;;;;2.40;0.80;;;;;;;3.12;100.00;96475.72;4990653;28;20053;-56
2023/01/16 07:58:46;;;;;;;2.58;0.70;;;;;;;3.13;100.00;96466.69;4990800;28;20030;-55
2023/01/16 08:01:11;;;;;;;1.58;0.40;;;;;;;3.13;100.00;96464.81;4985741;28;20034;-55
2023/01/16 08:03:37;;;;;;;2.60;0.80;;;;;;;3.17;100.00;96463.38;4989147;28;20057;-56
2023/01/16 08:06:03;;;;;;;1.58;0.77;;;;;;;3.16;100.00;96453.72;4987162;28;20033;-55
2023/01/16 08:08:29;;;;;;;2.50;0.43;;;;;;;3.17;100.00;96450.03;4991432;28;20629;-56
2023/01/16 08:10:57;;;;;;;2.17;0.63;;;;;;;3.15;100.00;96433.38;4992960;28;20030;-55
2023/01/16 08:13:23;;;;;;;0.82;0.40;;;;;;;3.10;100.00;96437.72;4994698;28;20041;-55
2023/01/16 08:15:50;;;;;;;2.00;0.50;;;;;;;3.06;100.00;96427.44;4986365;28;20031;-56
2023/01/16 08:18:17;;;;;;;1.58;0.63;;;;;;;3.06;100.00;96418.63;4987577;28;20557;-56
2023/01/16 08:20:44;;;;;;;3.05;0.77;;;;;;;3.08;100.00;96416.56;4991496;28;20034;-55
2023/01/16 08:23:09;;;;;;;1.40;0.80;;;;;;;3.13;100.00;96424.75;4992022;28;22840;-56
2023/01/16 08:25:35;;;;;;;1.92;0.70;;;;;;;3.16;100.00;96421.66;4987253;28;20030;-56
2023/01/16 08:28:00;;;;;;;3.17;0.63;;;;;;;3.25;100.00;96425.72;4982758;28;20024;-57
2023/01/16 08:30:25;;;;;;;3.45;0.93;;;;;;;3.33;100.00;96421.13;4986758;28;20029;-57
2023/01/16 08:33:00;;;;;;;3.97;0.95;;;;;;;3.44;100.00;96410.56;5000892;28;20026;-56
2023/01/16 08:35:26;;;;;;;1.88;0.43;;;;;;;3.42;100.00;96425.19;4983133;28;20388;-57
2023/01/16 08:37:51;;;;;;;3.55;0.77;;;;;;;3.54;100.00;96410.09;4987864;28;20107;-61
2023/01/16 08:40:17;;;;;;;1.58;0.65;;;;;;;3.62;100.00;96409.00;4980899;28;20045;-56
2023/01/16 08:53:43;;;;;;;1.40;0.73;;;;;;;4.23;100.00;96377.97;4997638;28;20155;-56
2023/01/16 08:56:08;;;;;;;1.15;0.43;;;;;;;4.28;100.00;96368.22;4983780;28;20585;-56
2023/01/16 08:58:34;;;;;;;2.95;0.70;;;;;;;4.24;100.00;96369.69;4985133;28;20098;-56
2023/01/16 09:00:59;;;;;;;2.70;0.60;;;;;;;4.10;100.00;96376.25;4983843;28;20509;-56
2023/01/16 09:03:24;;;;;;;1.58;0.57;;;;;;;4.13;100.00;96363.22;4983754;28;20128;-56
2023/01/16 09:05:50;;;;;;;1.23;0.40;;;;;;;4.15;100.00;96353.13;5018801;28;20044;-56
2023/01/16 09:08:15;;;;;;;2.67;0.63;;;;;;;4.11;100.00;96359.13;4987822;28;20034;-56
2023/01/16 09:13:48;;;;;;;1.15;0.43;;;;;;;4.12;100.00;96348.22;4983305;28;22229;-56
2023/01/16 09:16:10;;;;;;;2.15;0.60;;;;;;;4.00;100.00;96349.19;5001575;28;20045;-56
2023/01/16 09:18:36;;;;;;;2.28;0.70;;;;;;;3.96;100.00;96348.81;4991295;28;20025;-56
2023/01/16 09:21:02;;;;;;;4.50;0.73;;;;;;;3.88;100.00;96343.75;4994241;28;20032;-56
2023/01/16 09:23:27;;;;;;;2.63;0.55;;;;;;;3.81;100.00;96348.34;4988137;28;20034;-59
2023/01/16 09:25:52;;;;;;;2.80;0.60;;;;;;;3.79;100.00;96363.81;4986010;28;20041;-56
2023/01/16 09:28:18;;;;;;;1.13;0.40;;;;;;;3.69;100.00;96365.13;4991461;28;20018;-56
2023/01/16 09:30:43;;;;;;;3.20;0.55;;;;;;;3.67;100.00;96369.06;4991147;28;20038;-58
2023/01/16 09:33:08;;;;;;;6.80;0.70;;;;;;;3.68;100.00;96373.38;4987943;28;20147;-56
2023/01/16 09:35:35;;;;;;;3.72;0.50;;;;;;;3.70;100.00;96373.97;4986188;28;20021;-56
2023/01/16 09:38:01;;;;;;;4.18;0.75;;;;;;;3.70;100.00;96395.34;4984550;28;20026;-58
2023/01/16 09:40:26;;;;;;;1.25;0.68;;;;;;;3.69;100.00;96394.53;4997453;28;20068;-56
2023/01/16 09:45:48;;;;;;;3.90;0.52;;;;;;;3.91;100.00;96364.72;5009063;28;20453;-56
2023/01/16 09:48:49;;;;;;;2.03;0.68;;;;;;;3.92;100.00;96350.28;4994657;28;20037;-56
2023/01/16 09:51:19;;;;;;;1.23;0.60;;;;;;;3.90;100.00;96331.81;4948790;28;20035;-62
2023/01/16 09:59:34;;;;;;;1.50;0.30;;;;;;;4.25;100.00;96295.59;5009727;28;20448;-59
2023/01/16 10:02:07;;;;;;;0.80;0.40;;;;;;;4.35;100.00;96293.22;4992259;28;20037;-56
2023/01/16 10:04:33;;;;;;;1.80;0.45;;;;;;;4.43;100.00;96276.00;4982128;28;20108;-56
2023/01/16 10:07:04;;;;;;;1.92;0.45;;;;;;;4.50;100.00;96282.91;4999802;28;20072;-57
2023/01/16 10:09:54;;;;;;;2.05;0.50;;;;;;;4.57;100.00;96272.09;4996265;28;20532;-56
2023/01/16 10:12:27;;;;;;;0.85;0.30;;;;;;;4.60;100.00;96274.31;4982987;28;20029;-56
2023/01/16 10:15:14;;;;;;;1.10;0.40;;;;;;;4.65;100.00;96271.78;4982775;28;20033;-56
2023/01/16 10:17:39;;;;;;;0.57;0.17;;;;;;;4.74;100.00;96243.63;4985877;28;20029;-57
2023/01/16 10:20:41;;;;;;;3.88;0.38;;;;;;;4.82;100.00;96234.44;4997281;28;20092;-56
2023/01/16 10:23:19;;;;;;;0.98;0.10;;;;;;;4.90;100.00;96234.13;4982511;28;20033;-56
2023/01/16 10:26:03;;;;;;;2.03;0.40;;;;;;;4.94;100.00;96223.75;5003441;28;20114;-56
2023/01/16 10:28:40;;;;;;;0.80;0.30;;;;;;;4.97;100.00;96201.84;4983814;28;20469;-56
2023/01/16 10:31:14;;;;;;;0.25;0.20;;;;;;;4.99;100.00;96208.59;5000661;28;20124;-59
2023/01/16 10:34:09;;;;;;;1.25;0.40;;;;;;;5.01;100.00;96197.66;4992571;28;20034;-56
2023/01/16 10:36:40;;;;;;;0.70;0.20;;;;;;;5.10;100.00;96198.94;4984827;28;20485;-56
2023/01/16 10:39:11;;;;;;;1.73;0.65;;;;;;;5.18;98.17;96187.88;4984319;28;20026;-60
2023/01/16 10:50:18;;;;;;;1.80;0.30;;;;;;;5.48;79.67;96177.00;5003588;28;20057;-56
2023/01/16 10:52:46;;;;;;;0.32;0.22;;;;;;;5.48;79.31;96174.34;4992332;28;20029;-56
2023/01/16 10:55:13;;;;;;;2.40;0.30;;;;;;;5.56;80.68;96169.66;4986315;28;20116;-56
2023/01/16 10:57:46;;;;;;;1.70;0.28;;;;;;;5.51;82.03;96181.09;4981407;28;20026;-57
2023/01/16 11:00:18;;;;;;;1.17;0.20;;;;;;;5.43;82.35;96163.50;5005178;28;20044;-56
2023/01/16 11:02:47;;;;;;;0.70;0.20;;;;;;;5.45;82.46;96153.34;4988532;28;20029;-57
2023/01/16 11:05:41;;;;;;;0.47;0.20;;;;;;;5.47;87.93;96139.69;4984641;28;20485;-56
2023/01/16 11:08:15;;;;;;;0.95;0.38;;;;;;;5.48;83.25;96154.75;4980073;28;20048;-56
2023/01/16 11:10:43;;;;;;;0.57;0.30;;;;;;;5.49;89.14;96162.53;4992937;28;20374;-56
2023/01/16 11:19:15;;;;;;;0.95;0.40;;;;;;;5.56;100.00;96129.44;5006445;28;20041;-56
2023/01/16 11:21:43;;;;;;;4.13;0.30;;;;;;;5.55;100.00;96128.59;4988248;28;20042;-56
2023/01/16 11:24:31;;;;;;;3.20;0.50;;;;;;;5.52;100.00;96149.72;4991961;28;20022;-57
2023/01/16 11:27:00;;;;;;;0.32;0.20;;;;;;;5.48;100.00;96120.69;4983009;28;20033;-56
2023/01/16 11:29:33;;;;;;;0.47;0.20;;;;;;;5.41;100.00;96106.59;4991625;28;20034;-56
2023/01/16 11:32:05;;;;;;;1.45;0.30;;;;;;;5.33;100.00;96108.84;4993048;28;20021;-56
2023/01/16 11:34:31;;;;;;;0.93;0.30;;;;;;;5.31;100.00;96106.38;4990519;28;20765;-56
2023/01/16 11:36:59;;;;;;;0.50;0.32;;;;;;;5.32;100.00;96113.41;4985290;28;20034;-55
2023/01/16 11:39:28;;;;;;;1.30;0.30;;;;;;;5.31;100.00;96093.00;4985446;28;20054;-55
2023/01/16 11:41:55;;;;;;;;;;;;;;;5.26;100.00;96106.28;4991895;28;20030;-55
2023/01/16 11:47:31;;;;;;;1.50;0.20;;;;;;;5.19;100.00;96090.34;5005476;28;20045;-55
2023/01/16 11:49:57;;;;;;;1.50;0.43;;;;;;;5.24;100.00;96079.72;4986344;28;20068;-55
2023/01/16 11:52:29;;;;;;;1.80;0.32;;;;;;;5.29;100.00;96073.63;4995482;28;20029;-55
2023/01/16 11:55:01;;;;;;;0.65;0.20;;;;;;;5.39;100.00;96048.91;4991626;28;20052;-55
2023/01/16 11:57:36;;;;;;;3.13;0.30;;;;;;;5.51;100.00;96040.84;5007726;28;20401;-55
2023/01/16 12:00:10;;;;;;;2.08;0.52;;;;;;;5.54;100.00;96035.81;4990134;28;20030;-55
2023/01/16 12:02:58;;;;;;;0.88;0.60;;;;;;;5.59;100.00;96033.22;4991498;28;20033;-55
2023/01/16 12:05:56;;;;;;;5.70;0.50;;;;;;;5.63;100.00;96023.66;4993934;28;20038;-55
2023/01/16 12:08:49;;;;;;;0.32;0.20;;;;;;;5.60;100.00;96025.97;4999333;28;20033;-55
2023/01/16 12:11:23;;;;;;;1.25;0.40;;;;;;;5.55;100.00;96033.94;4988443;28;20030;-55
2023/01/16 12:14:20;;;;;;;0.85;0.38;;;;;;;5.57;100.00;96011.19;4991788;28;20034;-56
2023/01/16 12:16:48;;;;;;;1.40;0.65;;;;;;;5.67;100.00;95997.16;4995120;28;20367;-55
2023/01/16 12:19:51;;;;;;;0.77;0.27;;;;;;;5.67;100.00;95987.22;4998782;28;20541;-55
2023/01/16 12:22:54;;;;;;;0.80;0.30;;;;;;;5.64;100.00;95978.84;4995057;28;20034;-56
2023/01/16 12:25:59;;;;;;;1.55;0.20;;;;;;;5.59;100.00;95978.78;4988506;28;20026;-55
2023/01/16 12:28:46;;;;;;;1.00;0.22;;;;;;;5.63;100.00;95974.53;4994794;28;20034;-55
2023/01/16 12:31:50;;;;;;;2.33;0.35;;;;;;;5.60;100.00;95978.50;4986454;28;20030;-56
2023/01/16 12:34:43;;;;;;;0.20;0.10;;;;;;;5.62;100.00;95946.91;4997688;28;20030;-55
2023/01/16 12:37:27;;;;;;;1.95;0.40;;;;;;;5.62;100.00;95967.56;4991435;28;20029;-55
2023/01/16 12:40:07;;;;;;;1.23;0.40;;;;;;;5.68;100.00;95953.16;4988971;28;20057;-55
2023/01/16 12:45:52;;;;;;;4.68;0.90;;;;;;;5.73;100.00;95953.25;5012121;28;20060;-56
2023/01/16 12:48:33;;;;;;;2.20;0.68;;;;;;;5.72;100.00;95935.53;4992517;28;20032;-56
2023/01/16 12:51:17;;;;;;;1.60;0.73;;;;;;;5.71;100.00;95937.41;4986834;28;20034;-55
2023/01/16 12:54:03;;;;;;;1.25;0.47;;;;;;;5.76;100.00;95931.31;4993693;28;20030;-55
2023/01/16 12:57:03;;;;;;;2.42;0.40;;;;;;;5.97;100.00;95916.38;4991103;28;20071;-56
2023/01/16 12:59:36;;;;;;;3.28;1.42;;;;;;;6.08;100.00;95906.63;4991148;28;20584;-56
2023/01/16 13:02:22;;;;;;;1.23;0.55;;;;;;;6.25;100.00;95891.28;4989211;28;20039;-57
2023/01/16 13:05:07;;;;;;;2.55;0.52;;;;;;;6.45;100.00;95887.28;4985587;28;20038;-55
2023/01/16 13:07:37;;;;;;;0.68;0.47;;;;;;;6.53;100.00;95895.69;5001558;28;20022;-56
2023/01/16 13:13:25;;;;;;;1.40;0.65;;;;;;;6.52;100.00;95871.75;4990416;28;20037;-56